LIMF

Turin Airport

Torino, Italy
TAF LIMF 171700Z 1718/1818 VRB05KT 9999 SCT060
Issued Valid From Valid To
Nov-17 @ 17:00 UTC
(5 hours ago)
Nov-17 @ 18:00 UTC
(4 hours ago)
Nov-18 @ 18:00 UTC
(in 20 hours)
Nov-17 @ 18:00 to Nov-18 @ 18:00
TAF LIMF 171700Z 1718/1818 VRB05KT 9999 SCT060
Wind Visibility Clouds
Variable at 5 knots 10,000+ meters
  • Scattered at 6,000' AGL
TAF LIMF 171700Z 1718/1818 VRB05KT 9999 SCT060
Issued Nov-17 @ 17:00 UTC
(5 hours ago)
Valid From Nov-17 @ 18:00 UTC
(4 hours ago)
Valid To Nov-18 @ 18:00 UTC
(in 20 hours)
Nov-17 @ 18:00 - Nov-18 @ 18:00
Wind Visibility
Variable at 5 knots 10,000+ meters
Clouds
  • Scattered at 6,000' AGL